CGKWM CYTZ-CYXU
Flight info
| Callsign | CGKWM |
|---|---|
| Flight time | N/A |
| Altitude | 6500 |
| Route | PERLO4 DERLO |
| Aircraft | DA62/L-SDFGRY/C |
Departure
| Time | 2026-05-04 23:52 |
|---|---|
| Airport | Billy Bishop Toronto City Airport (CYTZ) |
Arrival
| Time | N/A |
|---|---|
| Airport | London International Airport (CYXU) |
| Time | Latitude | Longitude | Altitude | Speed | Heading |
|---|---|---|---|---|---|
| 2026-05-04 23:27 | 43.63265 | -79.39411 | 254 ft | 0 kts | 11° |
| 2026-05-04 23:51 | 43.63268 | -79.39411 | 254 ft | 2 kts | 355° |
| 2026-05-04 23:51 | 43.63274 | -79.39422 | 254 ft | 0 kts | 279° |
| 2026-05-04 23:51 | 43.63265 | -79.39411 | 254 ft | 0 kts | 11° |
| 2026-05-04 23:51 | 43.63276 | -79.39428 | 254 ft | 11 kts | 308° |
| 2026-05-04 23:52 | 43.63281 | -79.39436 | 254 ft | 0 kts | 320° |
| 2026-05-04 23:52 | 43.63542 | -79.39861 | 2182 ft | 86 kts | 268° |
| 2026-05-04 23:53 | 43.63491 | -79.40643 | 2127 ft | 84 kts | 238° |
| 2026-05-04 23:53 | 43.63059 | -79.41093 | 1941 ft | 86 kts | 203° |
| 2026-05-04 23:53 | 43.62354 | -79.41005 | 1718 ft | 119 kts | 174° |
| 2026-05-04 23:53 | 43.61623 | -79.40279 | 1579 ft | 142 kts | 148° |
| 2026-05-04 23:54 | 43.60960 | -79.39295 | 1589 ft | 134 kts | 150° |
| 2026-05-04 23:54 | 43.60277 | -79.38342 | 1381 ft | 143 kts | 149° |
| 2026-05-04 23:54 | 43.59576 | -79.37379 | 1183 ft | 149 kts | 148° |
| 2026-05-04 23:54 | 43.58883 | -79.36305 | 1159 ft | 146 kts | 139° |
| 2026-05-04 23:55 | 43.58324 | -79.35133 | 1117 ft | 149 kts | 131° |
| 2026-05-04 23:55 | 43.57850 | -79.33855 | 1114 ft | 148 kts | 125° |
| 2026-05-04 23:55 | 43.57144 | -79.31182 | 1011 ft | 153 kts | 115° |
| 2026-05-04 23:56 | 43.56855 | -79.29786 | 1027 ft | 144 kts | 122° |
| 2026-05-04 23:56 | 43.56234 | -79.29020 | 1129 ft | 106 kts | 182° |
| 2026-05-04 23:56 | 43.55606 | -79.29229 | 1262 ft | 88 kts | 206° |
| 2026-05-04 23:56 | 43.55059 | -79.29525 | 1383 ft | 81 kts | 208° |
| 2026-05-04 23:57 | 43.54533 | -79.29768 | 1506 ft | 78 kts | 208° |
| 2026-05-04 23:57 | 43.54030 | -79.29989 | 1627 ft | 74 kts | 207° |
| 2026-05-04 23:57 | 43.53558 | -79.30204 | 1742 ft | 69 kts | 208° |
| 2026-05-04 23:57 | 43.53116 | -79.30406 | 1866 ft | 64 kts | 208° |
| 2026-05-04 23:58 | 43.52701 | -79.30589 | 1973 ft | 61 kts | 208° |
| 2026-05-04 23:58 | 43.52314 | -79.30738 | 2091 ft | 56 kts | 208° |
| 2026-05-04 23:58 | 43.51959 | -79.30859 | 2210 ft | 49 kts | 208° |
| 2026-05-04 23:58 | 43.51647 | -79.30948 | 2323 ft | 41 kts | 207° |
| 2026-05-04 23:59 | 43.51403 | -79.31079 | 1453 ft | 9 kts | 272° |
| 2026-05-04 23:59 | 43.51289 | -79.31129 | 249 ft | 0 kts | 190° |